Time;durP1;ratioP1;P1;durP2;ratioP2;P2;SDS_P1;SDS_P2;PMS_P1;PMS_P2;Temp;Humidity;BMP_temperature;BMP_pressure;BME280_temperature;BME280_humidity;BME280_pressure;Samples;Min_cycle;Max_cycle;Signal;HPM_P1;HPM_P2
2021/12/17 00:01:06;;;;;;;1.98;0.60;;;;;;;20.21;35.18;98367.56;5101006;28;20057;-67
2021/12/17 00:03:43;;;;;;;1.85;0.50;;;;;;;20.21;34.98;98364.09;5101951;28;20489;-67
2021/12/17 00:08:38;;;;;;;7.32;0.80;;;;;;;20.20;34.93;98367.81;5110567;28;20466;-66
2021/12/17 00:11:05;;;;;;;1.20;0.45;;;;;;;20.20;34.82;98368.63;5113853;28;20076;-66
2021/12/17 00:13:32;;;;;;;1.42;0.68;;;;;;;20.20;34.55;98368.63;5103942;28;20039;-66
2021/12/17 00:15:58;;;;;;;0.68;0.60;;;;;;;20.20;34.53;98370.50;5092752;28;20077;-65
2021/12/17 00:18:39;;;;;;;1.42;0.60;;;;;;;20.19;34.63;98372.34;5093684;28;20024;-66
2021/12/17 00:54:00;;;;;;;1.35;1.02;;;;;;;20.07;34.12;98406.25;5051590;28;20044;-65
2021/12/17 00:56:27;;;;;;;1.75;0.35;;;;;;;20.05;34.10;98417.22;5091037;28;20402;-64
2021/12/17 00:58:53;;;;;;;0.50;0.40;;;;;;;20.04;34.05;98412.88;5103605;28;20044;-66
2021/12/17 01:01:19;;;;;;;0.50;0.38;;;;;;;20.03;34.09;98416.59;5093332;28;20526;-65
2021/12/17 01:03:46;;;;;;;0.75;0.43;;;;;;;20.05;34.22;98414.53;5101312;28;20054;-66
2021/12/17 01:06:12;;;;;;;0.85;0.35;;;;;;;20.04;34.16;98412.88;5092970;28;20028;-65
2021/12/17 01:08:37;;;;;;;0.93;0.50;;;;;;;20.03;34.39;98410.38;5095333;28;20035;-66
2021/12/17 01:11:04;;;;;;;0.40;0.40;;;;;;;20.01;34.07;98415.13;5092871;28;20040;-66
2021/12/17 01:13:31;;;;;;;0.70;0.50;;;;;;;19.99;34.17;98419.91;5094881;28;20119;-65
2021/12/17 01:15:58;;;;;;;1.05;0.60;;;;;;;19.98;34.18;98421.75;5093058;28;20036;-65
2021/12/17 01:18:35;;;;;;;3.25;0.50;;;;;;;19.96;34.40;98407.72;5092588;28;20096;-65
2021/12/17 01:42:35;;;;;;;0.82;0.38;;;;;;;19.84;34.67;98423.63;5092028;28;20413;-68
2021/12/17 01:45:01;;;;;;;1.17;0.52;;;;;;;19.85;34.84;98429.81;5094029;28;20118;-67
2021/12/17 01:47:26;;;;;;;0.88;0.50;;;;;;;19.83;34.86;98427.34;5096507;28;20414;-64
2021/12/17 02:00:50;;;;;;;0.60;0.40;;;;;;;19.79;34.79;98439.50;5092909;28;20112;-67
2021/12/17 02:03:17;;;;;;;1.48;0.77;;;;;;;19.78;34.89;98444.03;5093684;28;20480;-66
2021/12/17 02:05:44;;;;;;;0.98;0.38;;;;;;;19.77;34.85;98455.84;5092647;28;20036;-66
2021/12/17 02:08:10;;;;;;;1.27;0.52;;;;;;;19.78;34.85;98452.09;5098745;28;20035;-67
2021/12/17 02:32:05;;;;;;;0.77;0.45;;;;;;;19.74;34.61;98447.34;5092812;28;20394;-65
2021/12/17 02:35:04;;;;;;;1.63;0.82;;;;;;;19.74;34.42;98452.72;5095918;28;20049;-65
2021/12/17 02:37:32;;;;;;;1.25;0.40;;;;;;;19.74;34.33;98450.88;5094432;28;20093;-66
2021/12/17 02:45:36;;;;;;;0.85;0.50;;;;;;;19.79;34.23;98463.69;5112894;28;20096;-65
2021/12/17 02:48:04;;;;;;;0.65;0.50;;;;;;;19.80;34.42;98454.59;5094675;28;20035;-65
2021/12/17 02:50:31;;;;;;;0.85;0.40;;;;;;;19.79;34.56;98461.00;5095005;28;20527;-65
2021/12/17 02:53:00;;;;;;;1.25;0.60;;;;;;;19.79;34.19;98461.00;5101376;28;20076;-65
2021/12/17 02:55:28;;;;;;;0.82;0.50;;;;;;;19.78;34.19;98460.16;5115981;28;20038;-66
2021/12/17 02:57:55;;;;;;;0.70;0.50;;;;;;;19.78;34.23;98462.84;5116313;28;20035;-66
2021/12/17 03:00:21;;;;;;;0.55;0.40;;;;;;;19.76;34.46;98451.50;5108706;28;20032;-64
2021/12/17 03:02:47;;;;;;;0.80;0.40;;;;;;;19.76;34.26;98459.56;5095465;28;20032;-64
2021/12/17 03:05:13;;;;;;;0.63;0.40;;;;;;;19.76;34.32;98453.34;5096190;28;20044;-66
2021/12/17 03:07:42;;;;;;;1.50;0.50;;;;;;;19.77;34.42;98463.88;5095352;28;20043;-66
2021/12/17 03:10:11;;;;;;;0.85;0.50;;;;;;;19.77;34.36;98465.72;5113999;28;20092;-65
2021/12/17 03:15:20;;;;;;;1.02;0.50;;;;;;;19.76;34.36;98467.59;5102491;28;20123;-65
2021/12/17 03:18:35;;;;;;;0.90;0.50;;;;;;;19.77;34.30;98461.22;5095867;28;20047;-65
2021/12/17 03:23:40;;;;;;;0.47;0.40;;;;;;;19.77;34.46;98463.88;5105174;28;20046;-65
2021/12/17 03:26:21;;;;;;;3.05;0.47;;;;;;;19.77;34.42;98463.06;5098730;28;20023;-66
2021/12/17 03:28:51;;;;;;;0.95;0.57;;;;;;;19.78;34.55;98454.78;5101408;28;20119;-67
2021/12/17 03:31:19;;;;;;;1.23;0.50;;;;;;;19.79;34.54;98455.63;5115517;28;20050;-65
2021/12/17 03:33:48;;;;;;;0.55;0.40;;;;;;;19.80;34.40;98450.03;5104833;28;20036;-66
2021/12/17 03:36:16;;;;;;;1.15;0.50;;;;;;;19.80;34.28;98455.41;5094377;28;20048;-65
2021/12/17 03:38:48;;;;;;;2.38;0.50;;;;;;;19.83;34.30;98460.34;5094183;28;20038;-65
2021/12/17 03:43:40;;;;;;;1.77;0.55;;;;;;;19.81;34.35;98467.78;5102185;28;20054;-67
2021/12/17 03:46:06;;;;;;;1.73;0.40;;;;;;;19.81;34.19;98464.28;5094847;28;20028;-65
2021/12/17 03:48:35;;;;;;;0.60;0.40;;;;;;;19.80;34.13;98462.63;5100529;28;20412;-66
2021/12/17 03:51:02;;;;;;;0.43;0.30;;;;;;;19.79;34.25;98463.69;5094168;28;20031;-65
2021/12/17 03:53:27;;;;;;;1.08;0.50;;;;;;;19.77;34.06;98460.38;5095540;28;20067;-67
2021/12/17 03:55:53;;;;;;;1.27;0.50;;;;;;;19.77;34.19;98458.53;5094226;28;20042;-66
2021/12/17 03:58:19;;;;;;;0.68;0.40;;;;;;;19.77;34.14;98461.22;5099330;28;20478;-65
2021/12/17 04:00:45;;;;;;;0.52;0.32;;;;;;;19.77;34.23;98460.38;5095050;28;20059;-66
2021/12/17 04:03:11;;;;;;;1.35;0.60;;;;;;;19.76;34.42;98450.66;5094405;28;20127;-66
2021/12/17 04:05:37;;;;;;;0.47;0.47;;;;;;;19.75;34.54;98451.69;5094041;28;20028;-66
2021/12/17 04:08:03;;;;;;;1.00;0.60;;;;;;;19.76;34.47;98454.19;5095917;28;20541;-67
2021/12/17 04:10:38;;;;;;;1.23;0.55;;;;;;;19.76;34.43;98464.94;5111489;28;20251;-66
2021/12/17 04:13:15;;;;;;;2.30;0.40;;;;;;;19.77;34.19;98455.84;5114260;28;20028;-64
2021/12/17 04:15:43;;;;;;;0.95;0.82;;;;;;;19.77;34.27;98465.72;5114263;28;20532;-68
2021/12/17 04:18:10;;;;;;;2.83;0.45;;;;;;;19.77;34.06;98473.78;5108745;28;20032;-67
2021/12/17 04:20:36;;;;;;;0.55;0.28;;;;;;;19.76;34.16;98464.94;5097254;28;20054;-69
2021/12/17 04:23:03;;;;;;;0.70;0.32;;;;;;;19.77;34.03;98471.09;5095634;28;20085;-66
2021/12/17 04:25:29;;;;;;;2.65;0.40;;;;;;;19.77;34.06;98474.63;5103980;28;20066;-66
2021/12/17 04:27:56;;;;;;;0.77;0.60;;;;;;;19.80;34.08;98481.44;5111226;28;20429;-65
2021/12/17 04:30:22;;;;;;;0.82;0.35;;;;;;;19.79;33.78;98480.59;5093578;28;20031;-68
2021/12/17 04:32:48;;;;;;;0.80;0.43;;;;;;;19.79;33.87;98480.59;5095774;28;20042;-67
2021/12/17 04:35:13;;;;;;;0.65;0.38;;;;;;;19.79;33.58;98480.59;5104994;28;20167;-63
2021/12/17 04:37:39;;;;;;;0.50;0.30;;;;;;;19.79;33.71;98483.28;5094043;28;20046;-67
2021/12/17 04:40:05;;;;;;;0.65;0.40;;;;;;;19.80;33.92;98484.13;5096653;28;20399;-67
2021/12/17 04:43:19;;;;;;;0.95;0.55;;;;;;;19.80;33.80;98492.97;5092983;28;20097;-67
2021/12/17 04:45:18;;;;;;;1.38;0.50;;;;;;;19.81;33.94;98485.78;5091855;28;20040;-67
2021/12/17 04:58:40;;;;;;;0.57;0.50;;;;;;;19.73;33.67;98505.59;5092982;28;20555;-65
2021/12/17 05:01:12;;;;;;;0.93;0.43;;;;;;;19.72;33.40;98517.34;5096663;28;20027;-65
2021/12/17 05:03:37;;;;;;;6.15;1.27;;;;;;;19.72;33.53;98522.72;5093452;28;20035;-65
2021/12/17 05:06:03;;;;;;;0.73;0.45;;;;;;;19.71;33.30;98525.59;5110454;28;20024;-66
2021/12/17 05:08:29;;;;;;;0.47;0.30;;;;;;;19.68;33.25;98524.16;5113443;28;20038;-65
2021/12/17 05:21:39;;;;;;;1.05;0.50;;;;;;;19.65;33.47;98535.28;5092810;28;20024;-66
2021/12/17 05:24:04;;;;;;;1.77;0.50;;;;;;;19.67;33.39;98538.59;5100333;28;20062;-64
2021/12/17 05:26:30;;;;;;;1.92;0.98;;;;;;;19.66;33.28;98528.91;5092672;28;20035;-64
2021/12/17 05:28:56;;;;;;;0.73;0.43;;;;;;;19.67;33.12;98542.13;5092685;28;20042;-64
2021/12/17 05:31:22;;;;;;;0.77;0.45;;;;;;;19.67;33.19;98527.88;5092794;28;20482;-65
2021/12/17 05:33:52;;;;;;;0.95;0.47;;;;;;;19.71;33.18;98547.91;5093922;28;20042;-65
2021/12/17 05:36:20;;;;;;;2.07;0.70;;;;;;;19.71;33.12;98547.06;5093560;28;20052;-65
2021/12/17 05:38:46;;;;;;;1.33;0.80;;;;;;;19.72;33.08;98551.41;5093425;28;20023;-66
2021/12/17 05:41:12;;;;;;;0.63;0.43;;;;;;;19.73;33.12;98558.41;5093837;28;20154;-64
2021/12/17 05:43:38;;;;;;;1.80;0.80;;;;;;;19.72;33.11;98557.59;5100573;28;20032;-64
2021/12/17 05:46:12;;;;;;;2.40;0.70;;;;;;;19.72;33.03;98562.97;5112713;28;20084;-65
2021/12/17 05:48:39;;;;;;;2.35;0.80;;;;;;;19.73;32.91;98561.09;5095974;28;20514;-65
2021/12/17 05:51:07;;;;;;;0.82;0.52;;;;;;;19.72;33.09;98562.97;5092393;28;20559;-65
2021/12/17 05:53:34;;;;;;;1.35;0.70;;;;;;;19.74;32.93;98570.81;5093420;28;20031;-65
2021/12/17 05:56:00;;;;;;;1.65;0.68;;;;;;;19.73;32.86;98570.00;5092289;28;20039;-65
2021/12/17 05:58:27;;;;;;;1.42;0.60;;;;;;;19.75;32.86;98573.31;5101356;28;20112;-64
2021/12/17 06:00:53;;;;;;;2.92;0.60;;;;;;;19.75;32.79;98572.47;5107689;28;20119;-63
2021/12/17 06:03:20;;;;;;;1.75;0.50;;;;;;;19.74;32.91;98563.59;5101065;28;20040;-63
2021/12/17 06:05:46;;;;;;;1.50;0.70;;;;;;;19.73;32.72;98570.00;5092049;28;20103;-63
2021/12/17 06:08:11;;;;;;;1.05;0.60;;;;;;;19.73;32.76;98575.38;5092535;28;20035;-64
2021/12/17 06:10:37;;;;;;;1.50;0.55;;;;;;;19.74;32.62;98595.81;5093396;28;20039;-63
2021/12/17 06:13:03;;;;;;;1.83;0.77;;;;;;;19.74;32.73;98590.44;5095460;28;20035;-65
2021/12/17 06:15:28;;;;;;;3.00;1.20;;;;;;;19.73;32.57;98587.94;5114683;28;20024;-65
2021/12/17 06:17:55;;;;;;;0.75;0.47;;;;;;;19.71;32.25;98598.91;5107009;28;20035;-65
2021/12/17 06:20:22;;;;;;;2.38;0.60;;;;;;;19.71;32.63;98590.84;5095767;28;20036;-65
2021/12/17 06:22:48;;;;;;;1.20;0.50;;;;;;;19.73;32.51;98599.53;5097248;28;20052;-66
2021/12/17 06:25:15;;;;;;;1.73;0.63;;;;;;;19.74;32.62;98600.34;5098311;28;20028;-66
2021/12/17 06:27:41;;;;;;;4.20;0.80;;;;;;;19.74;32.51;98617.28;5097608;28;20517;-65
2021/12/17 06:30:10;;;;;;;1.73;0.57;;;;;;;19.75;32.60;98610.88;5096056;28;20055;-64
2021/12/17 06:32:36;;;;;;;1.13;0.60;;;;;;;19.76;32.56;98615.22;5095885;28;20031;-65
2021/12/17 06:35:02;;;;;;;1.27;0.70;;;;;;;19.76;32.68;98617.06;5097669;28;20056;-65
2021/12/17 06:37:28;;;;;;;1.38;0.63;;;;;;;19.77;32.41;98622.25;5095367;28;20398;-66
2021/12/17 06:39:53;;;;;;;1.75;0.75;;;;;;;19.76;32.50;98620.59;5112950;28;20036;-66
2021/12/17 06:42:19;;;;;;;2.08;0.57;;;;;;;19.76;32.18;98623.28;5116529;28;20031;-66
2021/12/17 06:44:47;;;;;;;1.80;0.70;;;;;;;19.76;32.25;98614.38;5114658;28;20041;-66
2021/12/17 06:50:00;;;;;;;1.30;0.60;;;;;;;19.77;32.36;98626.78;5096578;28;20046;-64
2021/12/17 07:00:44;;;;;;;1.58;0.68;;;;;;;19.78;32.22;98623.88;5095694;28;20540;-65
2021/12/17 07:11:23;;;;;;;1.90;0.50;;;;;;;19.78;32.10;98625.75;5096829;28;20105;-66
2021/12/17 07:32:49;;;;;;;0.93;0.40;;;;;;;19.76;32.12;98649.28;5095310;28;20043;-67
2021/12/17 07:40:32;;;;;;;1.33;0.73;;;;;;;19.80;31.83;98666.63;5115666;28;20035;-65
2021/12/17 07:42:57;;;;;;;0.68;0.40;;;;;;;19.81;31.68;98658.38;5115275;27;20028;-67
2021/12/17 07:45:23;;;;;;;1.60;0.55;;;;;;;19.83;31.67;98659.00;5114884;28;20039;-66
2021/12/17 07:47:49;;;;;;;2.75;0.50;;;;;;;19.86;31.70;98675.72;5113162;28;20035;-67
2021/12/17 07:50:14;;;;;;;0.90;0.60;;;;;;;19.87;31.61;98670.19;5115126;28;20111;-66
2021/12/17 07:52:40;;;;;;;1.13;0.60;;;;;;;19.89;31.68;98673.50;5110077;27;20028;-67
2021/12/17 07:55:05;;;;;;;1.13;0.63;;;;;;;19.89;31.73;98683.41;5096486;28;20118;-65
2021/12/17 07:57:31;;;;;;;2.35;0.90;;;;;;;19.89;31.81;98670.00;5094190;28;20016;-65
2021/12/17 07:59:56;;;;;;;3.45;0.82;;;;;;;19.91;31.63;98676.00;5109157;28;20070;-65
2021/12/17 08:02:22;;;;;;;2.50;0.80;;;;;;;19.91;31.61;98686.72;5112300;28;20036;-67
2021/12/17 08:04:47;;;;;;;1.40;0.65;;;;;;;19.91;31.74;98676.00;5096650;28;20023;-65
2021/12/17 08:07:13;;;;;;;2.45;0.80;;;;;;;19.92;31.75;98683.03;5095300;28;20437;-66
2021/12/17 08:09:40;;;;;;;1.65;0.70;;;;;;;19.93;31.69;98680.13;5111144;28;20059;-66
2021/12/17 08:12:08;;;;;;;2.13;0.75;;;;;;;19.94;31.57;98684.47;5112506;28;20088;-66
2021/12/17 08:14:34;;;;;;;1.48;0.65;;;;;;;19.94;31.73;98681.78;5093976;28;20120;-66
2021/12/17 08:24:58;;;;;;;2.33;0.80;;;;;;;19.93;31.56;98690.00;5111204;28;20042;-66
2021/12/17 08:29:56;;;;;;;1.88;0.80;;;;;;;19.92;31.53;98691.88;5112695;28;20084;-66
2021/12/17 08:32:22;;;;;;;4.00;0.68;;;;;;;19.93;31.44;98679.28;5112585;28;20410;-66
2021/12/17 08:34:48;;;;;;;2.67;0.98;;;;;;;19.96;31.45;98678.88;5113729;28;20047;-66
2021/12/17 08:37:13;;;;;;;2.25;0.80;;;;;;;19.97;31.30;98680.53;5111307;28;20046;-66
2021/12/17 08:39:39;;;;;;;1.15;0.60;;;;;;;19.97;31.45;98684.06;5098591;28;20048;-66
2021/12/17 08:42:06;;;;;;;1.27;0.65;;;;;;;19.99;31.57;98688.41;5093084;28;20042;-66
2021/12/17 08:44:32;;;;;;;0.93;0.70;;;;;;;20.00;31.41;98687.38;5104360;28;20035;-66
2021/12/17 08:46:57;;;;;;;2.88;0.82;;;;;;;20.01;31.37;98680.94;5111737;28;20035;-66
2021/12/17 08:49:23;;;;;;;1.48;0.60;;;;;;;20.01;31.55;98687.16;5094393;28;20173;-66
2021/12/17 08:51:49;;;;;;;2.17;0.85;;;;;;;20.02;31.36;98694.19;5094439;28;20076;-66
2021/12/17 08:54:15;;;;;;;1.33;0.80;;;;;;;20.02;31.44;98694.19;5093246;28;20119;-66
2021/12/17 08:56:45;;;;;;;2.72;0.80;;;;;;;20.04;31.55;98694.81;5093081;28;20453;-66
2021/12/17 08:59:14;;;;;;;1.98;0.90;;;;;;;20.04;31.44;98683.22;5094227;28;20566;-67
2021/12/17 09:01:40;;;;;;;2.08;0.90;;;;;;;20.05;31.40;98687.56;5094270;28;20043;-67
2021/12/17 09:04:06;;;;;;;1.83;0.75;;;;;;;20.05;31.22;98692.94;5098107;28;20037;-67
2021/12/17 09:06:31;;;;;;;1.27;0.70;;;;;;;20.05;31.23;98684.88;5099064;28;20035;-66
2021/12/17 09:09:02;;;;;;;3.33;0.93;;;;;;;20.04;31.32;98697.50;5104270;28;20118;-66
2021/12/17 09:11:29;;;;;;;;;;;;;;;20.00;31.50;98693.56;5100003;28;20109;-66
2021/12/17 09:13:59;;;;;;;1.00;0.70;;;;;;;19.99;31.42;98699.97;5093126;28;19919;-67
2021/12/17 09:16:25;;;;;;;2.10;0.90;;;;;;;20.00;31.35;98706.16;5092858;28;20032;-67
2021/12/17 09:18:53;;;;;;;1.52;0.80;;;;;;;20.01;31.42;98707.78;5099567;28;20039;-66
2021/12/17 09:21:19;;;;;;;1.42;0.80;;;;;;;20.00;31.49;98698.94;5099833;28;20163;-66
2021/12/17 09:23:46;;;;;;;1.40;0.63;;;;;;;19.99;31.63;98705.31;5111213;28;20032;-66
2021/12/17 09:26:13;;;;;;;1.65;0.90;;;;;;;19.99;31.55;98702.63;5113238;28;20043;-66
2021/12/17 09:28:38;;;;;;;5.30;1.17;;;;;;;19.99;31.45;98708.00;5107020;28;20063;-65
2021/12/17 09:31:06;;;;;;;1.52;0.93;;;;;;;19.99;31.39;98705.31;5112872;28;20123;-65
2021/12/17 09:33:33;;;;;;;2.10;0.85;;;;;;;20.01;31.57;98703.28;5111067;28;20201;-66
2021/12/17 09:35:58;;;;;;;2.08;0.73;;;;;;;20.05;31.52;98701.84;5112666;28;20466;-66
2021/12/17 09:38:24;;;;;;;6.82;1.13;;;;;;;20.04;31.74;98696.66;5108217;28;20036;-65
2021/12/17 09:40:50;;;;;;;2.85;0.85;;;;;;;20.04;31.42;98694.81;5092131;28;20032;-66
2021/12/17 09:43:16;;;;;;;1.85;0.95;;;;;;;20.07;31.54;98693.56;5093199;28;20077;-65
2021/12/17 09:45:42;;;;;;;2.53;1.15;;;;;;;20.07;31.60;98699.75;5093824;28;20028;-65
2021/12/17 09:48:08;;;;;;;1.63;0.80;;;;;;;20.09;31.41;98700.38;5096414;28;20554;-68
2021/12/17 09:50:34;;;;;;;2.88;1.20;;;;;;;20.08;31.64;98698.72;5105190;28;20039;-69
2021/12/17 09:53:00;;;;;;;1.95;1.00;;;;;;;20.09;31.74;98697.69;5092190;28;20027;-67
2021/12/17 09:55:26;;;;;;;3.30;1.08;;;;;;;20.07;31.73;98699.75;5111715;28;20032;-69
2021/12/17 09:57:52;;;;;;;4.80;1.10;;;;;;;20.08;31.46;98706.78;5106961;28;20063;-66
2021/12/17 10:00:22;;;;;;;2.03;1.20;;;;;;;20.10;31.50;98701.22;5112848;28;20032;-66
2021/12/17 10:02:48;;;;;;;2.03;1.20;;;;;;;20.10;31.54;98704.72;5106394;28;20048;-65
2021/12/17 10:05:24;;;;;;;2.08;1.20;;;;;;;20.07;31.71;98701.63;5093489;28;20092;-66
2021/12/17 10:07:59;;;;;;;4.53;1.27;;;;;;;20.07;31.48;98702.44;5092246;28;20103;-67
2021/12/17 10:10:33;;;;;;;3.65;1.00;;;;;;;20.11;31.73;98706.38;5093771;28;20394;-67
2021/12/17 10:13:27;;;;;;;2.90;0.88;;;;;;;20.12;31.72;98708.03;5093609;28;20068;-67
2021/12/17 10:16:00;;;;;;;4.53;1.05;;;;;;;20.13;31.72;98708.88;5091136;28;20067;-66
2021/12/17 10:18:41;;;;;;;1.73;0.95;;;;;;;20.12;31.59;98704.53;5092398;28;20115;-67
2021/12/17 10:21:11;;;;;;;3.57;1.00;;;;;;;20.10;31.65;98704.72;5092477;28;20475;-65
2021/12/17 10:23:41;;;;;;;1.73;1.10;;;;;;;20.09;31.79;98721.88;5091515;28;20462;-67
2021/12/17 10:26:11;;;;;;;2.22;0.98;;;;;;;20.08;31.68;98717.53;5091952;28;20111;-67
2021/12/17 10:28:36;;;;;;;2.80;2.13;;;;;;;20.08;31.63;98720.22;5092550;28;21914;-65
2021/12/17 10:31:02;;;;;;;1.38;0.88;;;;;;;20.06;31.71;98714.25;5095070;28;20043;-66
2021/12/17 10:33:29;;;;;;;2.22;1.10;;;;;;;20.07;31.67;98721.25;5101204;28;20032;-66
2021/12/17 10:36:00;;;;;;;2.03;1.05;;;;;;;20.09;31.66;98719.19;5100913;28;20051;-66
2021/12/17 10:38:26;;;;;;;1.90;0.95;;;;;;;20.10;31.47;98734.25;5110341;28;20070;-66
2021/12/17 10:46:12;;;;;;;2.55;1.48;;;;;;;20.13;31.39;98735.75;5100772;28;20397;-66
2021/12/17 10:51:32;;;;;;;2.17;1.42;;;;;;;20.16;31.45;98738.00;5092924;28;20070;-65
2021/12/17 10:54:04;;;;;;;1.48;0.90;;;;;;;20.16;31.43;98743.38;5091905;28;20110;-64
2021/12/17 10:56:33;;;;;;;;;;;;;;;20.12;31.45;98742.94;5093164;28;20044;-64
2021/12/17 10:59:05;;;;;;;3.17;1.15;;;;;;;20.18;31.66;98745.88;5096346;28;19920;-63
2021/12/17 11:01:36;;;;;;;2.45;1.30;;;;;;;20.23;31.79;98752.28;5105688;28;20126;-67
2021/12/17 11:04:27;;;;;;;2.63;1.40;;;;;;;20.25;31.84;98752.06;5104424;28;20413;-65
2021/12/17 11:07:01;;;;;;;4.05;1.45;;;;;;;20.30;31.83;98760.34;5099672;28;20490;-66
2021/12/17 11:09:34;;;;;;;5.25;1.30;;;;;;;20.43;31.73;98748.81;5105911;28;20048;-66
2021/12/17 11:12:21;;;;;;;5.60;1.33;;;;;;;20.57;31.53;98752.31;5106437;28;20490;-69
2021/12/17 11:14:49;;;;;;;2.67;1.77;;;;;;;20.70;31.56;98757.72;5093657;28;20039;-67
2021/12/17 11:17:17;;;;;;;2.63;1.60;;;;;;;20.80;31.24;98760.03;5107551;28;20051;-67
2021/12/17 11:19:43;;;;;;;2.47;1.60;;;;;;;20.89;31.02;98763.34;5105614;28;20496;-67
2021/12/17 11:22:09;;;;;;;4.53;1.45;;;;;;;20.95;31.00;98756.31;5113566;28;20089;-68
2021/12/17 11:24:37;;;;;;;2.83;1.45;;;;;;;21.01;31.00;98750.91;5102272;28;20032;-67
2021/12/17 11:27:05;;;;;;;3.47;1.55;;;;;;;21.07;30.81;98760.00;5107491;28;20027;-67
2021/12/17 11:29:31;;;;;;;3.45;1.50;;;;;;;21.11;30.62;98768.47;5108226;27;20097;-67
2021/12/17 11:32:00;;;;;;;2.42;1.35;;;;;;;21.13;30.74;98769.94;5095689;28;20036;-66
2021/12/17 11:34:26;;;;;;;1.58;1.25;;;;;;;21.17;30.64;98760.44;5096042;28;20056;-65
2021/12/17 11:36:53;;;;;;;2.58;1.35;;;;;;;21.21;30.57;98763.53;5098744;28;20031;-68
2021/12/17 11:39:24;;;;;;;7.43;1.40;;;;;;;21.24;30.49;98764.97;5095794;28;20059;-68
2021/12/17 11:42:18;;;;;;;4.05;1.33;;;;;;;21.25;30.65;98758.53;5094886;28;20085;-68
2021/12/17 11:44:53;;;;;;;2.08;1.10;;;;;;;21.25;30.55;98767.41;5110206;28;20437;-67
2021/12/17 11:47:20;;;;;;;1.85;1.17;;;;;;;21.29;30.38;98768.66;5094176;28;20024;-67
2021/12/17 11:49:49;;;;;;;2.05;1.17;;;;;;;21.30;30.21;98769.50;5096137;28;20047;-68
2021/12/17 11:52:35;;;;;;;2.28;1.58;;;;;;;21.30;30.29;98769.50;5096783;28;20036;-68
2021/12/17 11:55:24;;;;;;;2.70;1.45;;;;;;;21.31;30.30;98774.66;5100411;28;20135;-68
2021/12/17 11:57:53;;;;;;;2.15;1.17;;;;;;;21.31;30.33;98777.34;5110211;28;21360;-67
2021/12/17 12:00:30;;;;;;;2.88;1.30;;;;;;;21.31;30.01;98780.06;5094045;28;20050;-68
2021/12/17 12:03:13;;;;;;;3.75;1.45;;;;;;;21.33;30.09;98791.44;5095036;28;20092;-68
2021/12/17 12:05:41;;;;;;;2.85;1.38;;;;;;;21.34;30.06;98786.88;5112017;28;20379;-68
2021/12/17 12:08:33;;;;;;;4.07;1.20;;;;;;;21.31;30.01;98788.13;5113465;28;20027;-68
2021/12/17 12:11:11;;;;;;;2.28;1.33;;;;;;;21.37;30.11;98791.03;5113877;28;20031;-68
2021/12/17 12:13:47;;;;;;;2.50;1.20;;;;;;;21.37;30.00;98791.84;5104442;28;20120;-68
2021/12/17 12:16:18;;;;;;;2.08;1.20;;;;;;;21.37;30.07;98785.63;5095599;28;20035;-68
2021/12/17 12:18:47;;;;;;;3.92;1.27;;;;;;;21.37;29.92;98791.84;5102331;28;20080;-67
2021/12/17 12:21:18;;;;;;;6.40;1.27;;;;;;;21.40;29.86;98794.13;5114467;28;20034;-68
2021/12/17 12:23:56;;;;;;;1.85;1.25;;;;;;;21.42;29.86;98793.91;5114372;28;20486;-68
2021/12/17 12:26:23;;;;;;;2.97;1.42;;;;;;;21.44;29.89;98797.19;5114420;28;20031;-68
2021/12/17 12:28:58;;;;;;;2.05;1.25;;;;;;;21.45;29.92;98790.78;5096208;28;20028;-68
2021/12/17 12:31:27;;;;;;;4.40;1.52;;;;;;;21.46;29.80;98800.53;5096481;28;20036;-68
2021/12/17 12:34:08;;;;;;;10.18;1.30;;;;;;;21.45;29.95;98793.47;5093554;28;20422;-66
2021/12/17 12:36:58;;;;;;;5.88;1.50;;;;;;;21.44;29.85;98802.59;5094133;28;20048;-66
2021/12/17 12:39:38;;;;;;;5.72;1.90;;;;;;;21.43;29.80;98795.53;5094766;28;20506;-66
2021/12/17 12:42:42;;;;;;;2.88;1.40;;;;;;;21.44;29.80;98802.59;5092705;28;20119;-67
2021/12/17 12:45:12;;;;;;;4.85;1.35;;;;;;;21.45;29.83;98804.25;5035161;28;20083;-68
2021/12/17 12:47:49;;;;;;;4.32;1.38;;;;;;;21.47;30.24;98796.78;5034750;28;20059;-69
2021/12/17 12:50:20;;;;;;;5.03;1.45;;;;;;;21.49;29.79;98805.50;5070873;28;20054;-69
2021/12/17 12:52:52;;;;;;;2.67;1.40;;;;;;;21.50;30.12;98805.25;5093067;28;20119;-67
2021/12/17 12:55:43;;;;;;;4.43;1.58;;;;;;;21.50;29.79;98810.66;5113542;28;20051;-67
2021/12/17 12:58:29;;;;;;;6.10;1.35;;;;;;;21.49;29.92;98811.69;5109774;28;20028;-67
2021/12/17 13:01:00;;;;;;;7.32;1.40;;;;;;;21.52;30.00;98810.47;5094245;28;20136;-68
2021/12/17 13:03:29;;;;;;;3.70;1.35;;;;;;;21.56;29.82;98808.97;5094285;28;20175;-68
2021/12/17 13:05:56;;;;;;;5.25;1.50;;;;;;;21.58;30.01;98814.16;5097282;28;20410;-67
2021/12/17 13:08:23;;;;;;;6.35;1.60;;;;;;;21.58;29.69;98808.78;5106644;28;20028;-68
2021/12/17 13:10:51;;;;;;;4.22;1.55;;;;;;;21.58;30.02;98811.47;5093238;28;20147;-67
2021/12/17 13:13:29;;;;;;;4.18;1.40;;;;;;;21.60;30.03;98814.81;5093635;28;20090;-67
2021/12/17 13:23:54;;;;;;;5.00;1.48;;;;;;;21.47;30.02;98824.53;5107282;28;19911;-68
2021/12/17 13:26:25;;;;;;;4.78;1.20;;;;;;;21.46;30.05;98836.34;5111382;28;20027;-67
2021/12/17 13:29:13;;;;;;;7.47;1.30;;;;;;;21.43;30.18;98830.53;5101036;28;20067;-68
2021/12/17 13:31:41;;;;;;;3.90;1.42;;;;;;;21.42;30.23;98837.78;5106101;28;20047;-67
2021/12/17 13:34:24;;;;;;;2.05;1.13;;;;;;;21.46;30.24;98844.41;5112977;28;20035;-68
2021/12/17 13:37:06;;;;;;;3.90;1.27;;;;;;;21.47;30.21;98842.53;5111464;28;20039;-67
2021/12/17 13:39:35;;;;;;;;;;;;;;;21.39;30.43;98843.59;5093757;28;20032;-67
2021/12/17 13:42:01;;;;;;;3.83;1.08;;;;;;;21.37;30.34;98847.53;5111078;28;19937;-67
2021/12/17 13:44:39;;;;;;;4.28;1.42;;;;;;;21.34;30.04;98854.13;5110928;28;20489;-67
2021/12/17 13:47:29;;;;;;;2.65;1.10;;;;;;;21.31;30.30;98858.09;5113373;28;20019;-67
2021/12/17 13:50:30;;;;;;;2.17;1.33;;;;;;;21.31;30.36;98868.03;5096777;28;20524;-67
2021/12/17 13:52:56;;;;;;;;;;;;;;;21.29;30.22;98867.41;5093091;28;20077;-66
2021/12/17 13:55:37;;;;;;;1.85;1.20;;;;;;;21.29;30.35;98865.53;5090794;28;20014;-67
2021/12/17 13:58:11;;;;;;;4.07;1.35;;;;;;;21.26;30.38;98871.31;5097933;28;20040;-67
2021/12/17 14:00:42;;;;;;;4.72;1.70;;;;;;;21.28;30.60;98871.94;5092324;28;20494;-68
2021/12/17 14:03:13;;;;;;;4.20;1.17;;;;;;;21.29;30.59;98878.97;5093400;28;20077;-68
2021/12/17 14:05:51;;;;;;;2.67;1.48;;;;;;;21.28;30.43;98885.41;5099782;28;20088;-68
2021/12/17 14:08:20;;;;;;;2.38;1.48;;;;;;;21.26;30.32;98886.66;5103713;28;20487;-67
2021/12/17 14:10:48;;;;;;;2.15;1.13;;;;;;;21.27;30.74;98885.63;5092345;28;20036;-67
2021/12/17 14:13:26;;;;;;;3.90;1.33;;;;;;;21.25;30.46;98888.50;5092158;28;20077;-67
2021/12/17 14:15:54;;;;;;;3.70;1.10;;;;;;;21.25;30.32;98893.06;5101587;28;20529;-67
2021/12/17 14:18:26;;;;;;;4.68;1.38;;;;;;;21.28;30.29;98890.78;5092776;28;20048;-67
2021/12/17 14:20:57;;;;;;;2.45;1.42;;;;;;;21.33;30.13;98887.47;5106399;28;20126;-67
2021/12/17 14:23:26;;;;;;;2.17;1.30;;;;;;;21.40;30.23;98892.84;5107151;28;20038;-67
2021/12/17 14:25:59;;;;;;;3.55;1.15;;;;;;;21.39;30.25;98894.72;5092751;28;20061;-67
2021/12/17 14:28:30;;;;;;;2.40;1.10;;;;;;;21.35;30.41;98893.47;5109733;28;20031;-68
2021/12/17 14:31:09;;;;;;;3.78;1.10;;;;;;;21.38;30.33;98897.63;5111350;28;20047;-68
2021/12/17 14:33:38;;;;;;;2.17;1.30;;;;;;;21.41;30.06;98889.13;5100089;28;20064;-67
2021/12/17 14:36:09;;;;;;;2.47;1.10;;;;;;;21.42;29.85;98898.84;5095096;28;20059;-68
2021/12/17 14:38:54;;;;;;;1.77;1.20;;;;;;;21.42;30.10;98899.69;5095960;28;20032;-67
2021/12/17 14:41:32;;;;;;;4.80;1.30;;;;;;;21.40;30.14;98906.28;5096963;28;20430;-68
2021/12/17 14:44:03;;;;;;;2.35;0.95;;;;;;;21.41;30.20;98911.50;5096447;28;20032;-68
2021/12/17 14:46:54;;;;;;;2.95;1.40;;;;;;;21.38;30.28;98914.59;5095533;28;20043;-68
2021/12/17 15:03:08;;;;;;;2.40;0.90;;;;;;;21.27;30.51;98928.66;5103628;28;20032;-67
2021/12/17 15:05:34;;;;;;;1.33;0.65;;;;;;;21.23;30.52;98932.78;5113894;28;20047;-67
2021/12/17 15:08:01;;;;;;;1.67;1.00;;;;;;;21.21;30.24;98940.22;5112361;28;20081;-67
2021/12/17 15:10:28;;;;;;;2.95;0.90;;;;;;;21.19;30.38;98938.56;5096591;27;20130;-67
2021/12/17 15:12:57;;;;;;;2.17;0.80;;;;;;;21.21;30.20;98954.53;5095179;28;20083;-68
2021/12/17 15:15:25;;;;;;;4.43;0.90;;;;;;;21.21;29.99;98951.84;5095984;28;20042;-68